createdAt,value
2018-10-04T00:01:00.060Z,1023.46
2018-10-04T00:02:09.489Z,1023.44
2018-10-04T00:03:18.658Z,1023.45
2018-10-04T00:04:28.355Z,1023.46
2018-10-04T00:05:37.556Z,1023.48
2018-10-04T00:06:47.126Z,1023.46
2018-10-04T00:07:56.857Z,1023.44
2018-10-04T00:09:06.036Z,1023.48
2018-10-04T00:10:15.469Z,1023.5
2018-10-04T00:11:25.156Z,1023.49
2018-10-04T00:12:34.596Z,1023.51
2018-10-04T00:13:44.014Z,1023.56
2018-10-04T00:14:53.445Z,1023.54
2018-10-04T00:16:02.611Z,1023.57
2018-10-04T00:17:12.036Z,1023.59
2018-10-04T00:18:21.989Z,1023.6
2018-10-04T00:19:31.668Z,1023.62
2018-10-04T00:20:41.120Z,1023.63
2018-10-04T00:21:50.572Z,1023.66
2018-10-04T00:23:00.250Z,1023.69
2018-10-04T00:24:09.677Z,1023.65
2018-10-04T00:25:19.354Z,1023.67
2018-10-04T00:26:29.033Z,1023.67
2018-10-04T00:27:38.994Z,1023.68
2018-10-04T00:28:48.414Z,1023.65
2018-10-04T00:29:57.582Z,1023.63
2018-10-04T00:31:06.763Z,1023.61
2018-10-04T00:32:16.938Z,1023.66
2018-10-04T00:33:26.372Z,1023.67
2018-10-04T00:34:35.280Z,1023.6
2018-10-04T00:35:44.719Z,1023.62
2018-10-04T00:36:54.042Z,1023.64
2018-10-04T00:38:03.590Z,1023.62
2018-10-04T00:39:13.013Z,1023.61
2018-10-04T00:40:22.429Z,1023.6
2018-10-04T00:41:31.613Z,1023.62
2018-10-04T00:42:41.220Z,1023.66
2018-10-04T00:43:50.383Z,1023.63
2018-10-04T00:45:00.067Z,1023.68
2018-10-04T00:46:09.748Z,1023.67
2018-10-04T00:47:19.171Z,1023.64
2018-10-04T00:48:28.633Z,1023.66
2018-10-04T00:49:38.076Z,1023.64
2018-10-04T00:50:47.813Z,1023.61
2018-10-04T00:51:57.249Z,1023.59
2018-10-04T00:53:06.660Z,1023.62
2018-10-04T00:54:15.833Z,1023.63
2018-10-04T00:55:25.268Z,1023.62
2018-10-04T00:56:34.697Z,1023.6
2018-10-04T00:57:44.395Z,1023.61
2018-10-04T00:58:53.829Z,1023.62
2018-10-04T01:00:03.780Z,1023.62
2018-10-04T01:01:12.945Z,1023.6
2018-10-04T01:02:22.633Z,1023.62
2018-10-04T01:03:31.856Z,1023.56
2018-10-04T01:04:41.299Z,1023.58
2018-10-04T01:05:50.738Z,1023.55
2018-10-04T01:07:00.184Z,1023.56
2018-10-04T01:08:10.136Z,1023.5
2018-10-04T01:09:19.048Z,1023.52
2018-10-04T01:10:28.132Z,1023.5
2018-10-04T01:11:37.589Z,1023.54
2018-10-04T01:12:47.022Z,1023.48
2018-10-04T01:13:55.968Z,1023.55
2018-10-04T01:15:05.875Z,1023.54
2018-10-04T01:16:15.037Z,1023.48
2018-10-04T01:17:24.480Z,1023.51
2018-10-04T01:18:33.911Z,1023.52
2018-10-04T01:19:42.847Z,1023.52
2018-10-04T01:20:52.703Z,1023.5
2018-10-04T01:22:02.130Z,1023.47
2018-10-04T01:23:11.300Z,1023.52
2018-10-04T01:24:20.741Z,1023.49
2018-10-04T01:25:30.433Z,1023.48
2018-10-04T01:26:40.150Z,1023.53
2018-10-04T01:27:49.861Z,1023.45
2018-10-04T01:28:59.553Z,1023.48
2018-10-04T01:30:09.240Z,1023.41
2018-10-04T01:31:18.861Z,1023.43
2018-10-04T01:32:28.087Z,1023.43
2018-10-04T01:33:37.779Z,1023.48
2018-10-04T01:34:47.739Z,1023.47
2018-10-04T01:35:56.900Z,1023.42
2018-10-04T01:37:06.592Z,1023.41
2018-10-04T01:38:15.782Z,1023.41
2018-10-04T01:39:25.239Z,1023.39
2018-10-04T01:40:34.936Z,1023.39
2018-10-04T01:41:44.618Z,1023.35
2018-10-04T01:42:53.796Z,1023.33
2018-10-04T01:44:02.884Z,1023.38
2018-10-04T01:45:12.659Z,1023.32
2018-10-04T01:46:22.082Z,1023.27
2018-10-04T01:47:31.507Z,1023.32
2018-10-04T01:48:41.752Z,1023.3
2018-10-04T01:49:51.214Z,1023.3
2018-10-04T01:51:00.954Z,1023.26
2018-10-04T01:52:10.404Z,1023.23
2018-10-04T01:53:19.628Z,1023.24
2018-10-04T01:54:29.057Z,1023.28
2018-10-04T01:55:37.976Z,1023.21
2018-10-04T01:56:47.893Z,1023.22
2018-10-04T01:57:57.604Z,1023.21
2018-10-04T01:59:07.751Z,1023.26
2018-10-04T02:00:16.955Z,1023.26
2018-10-04T02:01:26.659Z,1023.31
2018-10-04T02:02:36.079Z,1023.34
2018-10-04T02:03:45.292Z,1023.37
2018-10-04T02:04:54.201Z,1023.35
2018-10-04T02:06:03.893Z,1023.35
2018-10-04T02:07:13.352Z,1023.32
2018-10-04T02:08:23.286Z,1023.36
2018-10-04T02:09:33.234Z,1023.4
2018-10-04T02:10:42.992Z,1023.38
2018-10-04T02:11:52.467Z,1023.39
2018-10-04T02:13:02.481Z,1023.38
2018-10-04T02:14:12.549Z,1023.4
2018-10-04T02:15:22.618Z,1023.44
2018-10-04T02:16:32.663Z,1023.46
2018-10-04T02:17:42.161Z,1023.49
2018-10-04T02:18:51.337Z,1023.46
2018-10-04T02:20:00.766Z,1023.47
2018-10-04T02:21:09.963Z,1023.44
2018-10-04T02:22:19.903Z,1023.4
2018-10-04T02:23:29.073Z,1023.39
2018-10-04T02:24:38.524Z,1023.4
2018-10-04T02:25:47.971Z,1023.35
2018-10-04T02:26:57.128Z,1023.31
2018-10-04T02:28:06.834Z,1023.29
2018-10-04T02:29:16.472Z,1023.29
2018-10-04T02:30:25.948Z,1023.3
2018-10-04T02:31:35.656Z,1023.32
2018-10-04T02:32:45.091Z,1023.31
2018-10-04T02:33:54.361Z,1023.29
2018-10-04T02:35:03.788Z,1023.26
2018-10-04T02:36:13.729Z,1023.25
2018-10-04T02:37:22.931Z,1023.32
2018-10-04T02:38:32.616Z,1023.32
2018-10-04T02:39:42.317Z,1023.3
2018-10-04T02:40:52.074Z,1023.31
2018-10-04T02:42:01.498Z,1023.32
2018-10-04T02:43:11.677Z,1023.29
2018-10-04T02:44:21.439Z,1023.3
2018-10-04T02:45:31.399Z,1023.32
2018-10-04T02:46:40.680Z,1023.33
2018-10-04T02:47:49.633Z,1023.29
2018-10-04T02:48:58.830Z,1023.3
2018-10-04T02:50:08.028Z,1023.31
2018-10-04T02:51:17.208Z,1023.24
2018-10-04T02:52:27.169Z,1023.28
2018-10-04T02:53:36.607Z,1023.24
2018-10-04T02:54:45.792Z,1023.24
2018-10-04T02:55:55.205Z,1023.21
2018-10-04T02:57:04.393Z,1023.21
2018-10-04T02:58:13.876Z,1023.17
2018-10-04T02:59:23.297Z,1023.16
2018-10-04T03:00:33.031Z,1023.16
2018-10-04T03:01:42.747Z,1023.19
2018-10-04T03:02:52.709Z,1023.15
2018-10-04T03:04:02.150Z,1023.11
2018-10-04T03:05:11.597Z,1023.14
2018-10-04T03:06:20.821Z,1023.12
2018-10-04T03:07:30.502Z,1023.17
2018-10-04T03:08:39.420Z,1023.19
2018-10-04T03:09:49.119Z,1023.16
2018-10-04T03:10:58.566Z,1023.14
2018-10-04T03:12:07.741Z,1023.19
2018-10-04T03:13:17.247Z,1023.18
2018-10-04T03:14:26.662Z,1023.2
2018-10-04T03:15:36.076Z,1023.26
2018-10-04T03:16:45.285Z,1023.22
2018-10-04T03:17:54.723Z,1023.2
2018-10-04T03:19:04.428Z,1023.17
2018-10-04T03:20:14.132Z,1023.21
2018-10-04T03:21:24.354Z,1023.17
2018-10-04T03:22:34.505Z,1023.17
2018-10-04T03:23:43.953Z,1023.19
2018-10-04T03:24:53.520Z,1023.22
2018-10-04T03:26:02.424Z,1023.14
2018-10-04T03:27:11.957Z,1023.15
2018-10-04T03:28:21.395Z,1023.13
2018-10-04T03:29:30.571Z,1023.15
2018-10-04T03:30:40.511Z,1023.14
2018-10-04T03:31:49.941Z,1023.15
2018-10-04T03:32:59.128Z,1023.12
2018-10-04T03:34:08.587Z,1023.14
2018-10-04T03:35:17.880Z,1023.14
2018-10-04T03:36:27.311Z,1023.15
2018-10-04T03:37:37.020Z,1023.18
2018-10-04T03:38:46.181Z,1023.18
2018-10-04T03:39:55.649Z,1023.17
2018-10-04T03:41:04.845Z,1023.19
2018-10-04T03:42:14.273Z,1023.18
2018-10-04T03:43:23.711Z,1023.18
2018-10-04T03:44:33.391Z,1023.15
2018-10-04T03:45:42.556Z,1023.09
2018-10-04T03:46:51.988Z,1023.04
2018-10-04T03:48:01.669Z,1023
2018-10-04T03:49:11.373Z,1022.97
2018-10-04T03:50:20.551Z,1022.99
2018-10-04T03:51:29.722Z,1022.94
2018-10-04T03:52:38.915Z,1022.93
2018-10-04T03:53:48.087Z,1022.95
2018-10-04T03:54:57.716Z,1022.99
2018-10-04T03:56:07.713Z,1022.97
2018-10-04T03:57:17.784Z,1022.97
2018-10-04T03:58:27.207Z,1022.92
2018-10-04T03:59:36.931Z,1022.95
2018-10-04T04:00:46.385Z,1022.89
2018-10-04T04:01:55.855Z,1022.94
2018-10-04T04:03:05.027Z,1022.97
2018-10-04T04:04:14.450Z,1022.95
2018-10-04T04:05:23.863Z,1022.93
2018-10-04T04:06:33.309Z,1022.97
2018-10-04T04:07:42.821Z,1022.99
2018-10-04T04:08:52.263Z,1022.96
2018-10-04T04:10:01.948Z,1022.96
2018-10-04T04:11:11.364Z,1022.98
2018-10-04T04:12:21.045Z,1023
2018-10-04T04:13:30.485Z,1022.98
2018-10-04T04:14:39.654Z,1022.98
2018-10-04T04:15:49.077Z,1022.98
2018-10-04T04:16:58.503Z,1022.94
2018-10-04T04:18:07.925Z,1022.93
2018-10-04T04:19:17.188Z,1022.93
2018-10-04T04:20:26.904Z,1022.9
2018-10-04T04:21:36.352Z,1022.96
2018-10-04T04:22:45.012Z,1022.91
2018-10-04T04:23:54.731Z,1022.89
2018-10-04T04:25:04.208Z,1022.91
2018-10-04T04:26:14.454Z,1022.93
2018-10-04T04:27:23.628Z,1022.94
2018-10-04T04:28:33.073Z,1022.98
2018-10-04T04:29:42.514Z,1022.98
2018-10-04T04:30:52.053Z,1022.96
2018-10-04T04:32:01.876Z,1022.95
2018-10-04T04:33:11.482Z,1022.95
2018-10-04T04:34:21.188Z,1022.98
2018-10-04T04:35:30.907Z,1022.96
2018-10-04T04:36:40.593Z,1022.99
2018-10-04T04:37:49.773Z,1022.97
2018-10-04T04:38:59.210Z,1022.93
2018-10-04T04:40:08.659Z,1022.95
2018-10-04T04:41:17.576Z,1022.93
2018-10-04T04:42:27.041Z,1022.95
2018-10-04T04:43:36.486Z,1022.94
2018-10-04T04:44:46.655Z,1022.93
2018-10-04T04:45:56.100Z,1022.91
2018-10-04T04:47:05.814Z,1022.9
2018-10-04T04:48:15.851Z,1022.91
2018-10-04T04:49:25.333Z,1022.92
2018-10-04T04:50:34.495Z,1022.89
2018-10-04T04:51:44.186Z,1022.9
2018-10-04T04:52:53.797Z,1022.87
2018-10-04T04:54:03.269Z,1022.84
2018-10-04T04:55:12.972Z,1022.88
2018-10-04T04:56:22.544Z,1022.87
2018-10-04T04:57:32.261Z,1022.89
2018-10-04T04:58:41.182Z,1022.83
2018-10-04T04:59:50.607Z,1022.84
2018-10-04T05:00:59.873Z,1022.8
2018-10-04T05:02:09.303Z,1022.84
2018-10-04T05:03:18.995Z,1022.83
2018-10-04T05:04:28.435Z,1022.84
2018-10-04T05:05:38.457Z,1022.86
2018-10-04T05:06:47.666Z,1022.82
2018-10-04T05:07:57.086Z,1022.79
2018-10-04T05:09:06.785Z,1022.86
2018-10-04T05:10:16.481Z,1022.79
2018-10-04T05:11:25.917Z,1022.82
2018-10-04T05:12:35.900Z,1022.8
2018-10-04T05:13:45.575Z,1022.84
2018-10-04T05:14:54.245Z,1022.9
2018-10-04T05:16:04.027Z,1022.85
2018-10-04T05:17:14.353Z,1022.87
2018-10-04T05:18:24.209Z,1022.89
2018-10-04T05:19:33.920Z,1022.88
2018-10-04T05:20:43.734Z,1022.87
2018-10-04T05:21:53.194Z,1022.92
2018-10-04T05:23:02.367Z,1022.9
2018-10-04T05:24:12.321Z,1022.92
2018-10-04T05:25:21.777Z,1022.9
2018-10-04T05:26:30.699Z,1022.89
2018-10-04T05:27:40.171Z,1022.9
2018-10-04T05:28:50.205Z,1022.87
2018-10-04T05:29:59.641Z,1022.91
2018-10-04T05:31:08.840Z,1022.92
2018-10-04T05:32:18.282Z,1022.88
2018-10-04T05:33:27.466Z,1022.87
2018-10-04T05:34:36.395Z,1022.84
2018-10-04T05:35:46.147Z,1022.87
2018-10-04T05:36:55.346Z,1022.84
2018-10-04T05:38:05.311Z,1022.89
2018-10-04T05:39:14.480Z,1022.91
2018-10-04T05:40:24.449Z,1022.9
2018-10-04T05:41:33.365Z,1022.87
2018-10-04T05:42:42.787Z,1022.91
2018-10-04T05:43:52.245Z,1022.91
2018-10-04T05:45:01.712Z,1022.91
2018-10-04T05:46:12.628Z,1022.93
2018-10-04T05:47:21.544Z,1022.91
2018-10-04T05:48:31.245Z,1022.94
2018-10-04T05:49:40.413Z,1022.93
2018-10-04T05:50:49.564Z,1022.98
2018-10-04T05:51:59.292Z,1022.94
2018-10-04T05:53:08.314Z,1022.95
2018-10-04T05:54:17.943Z,1022.94
2018-10-04T05:55:27.113Z,1022.94
2018-10-04T05:56:36.534Z,1022.94
2018-10-04T05:57:45.455Z,1022.95
2018-10-04T05:58:54.676Z,1022.99
2018-10-04T06:00:05.064Z,1022.96
2018-10-04T06:01:14.509Z,1022.95
2018-10-04T06:02:24.201Z,1022.95
2018-10-04T06:03:33.900Z,1022.95
2018-10-04T06:04:43.353Z,1022.95
2018-10-04T06:05:53.258Z,1022.96
2018-10-04T06:07:02.452Z,1022.97
2018-10-04T06:08:12.157Z,1022.94
2018-10-04T06:09:21.742Z,1022.94
2018-10-04T06:10:31.724Z,1022.96
2018-10-04T06:11:41.667Z,1022.94
2018-10-04T06:12:50.845Z,1022.94
2018-10-04T06:14:00.012Z,1022.95
2018-10-04T06:15:10.027Z,1022.94
2018-10-04T06:16:19.934Z,1022.95
2018-10-04T06:17:29.625Z,1022.92
2018-10-04T06:18:39.308Z,1022.96
2018-10-04T06:19:48.494Z,1022.98
2018-10-04T06:20:58.216Z,1023.01
2018-10-04T06:22:07.418Z,1022.94
2018-10-04T06:23:16.897Z,1022.95
2018-10-04T06:24:26.194Z,1022.97
2018-10-04T06:25:35.645Z,1023.01
2018-10-04T06:26:45.353Z,1022.98
2018-10-04T06:27:54.814Z,1023.01
2018-10-04T06:29:04.260Z,1023.05
2018-10-04T06:30:14.018Z,1023.08
2018-10-04T06:31:23.401Z,1023.1
2018-10-04T06:32:33.126Z,1023.07
2018-10-04T06:33:42.838Z,1023.06
2018-10-04T06:34:52.633Z,1023.04
2018-10-04T06:36:02.859Z,1023.06
2018-10-04T06:37:11.769Z,1023.11
2018-10-04T06:38:20.943Z,1023.1
2018-10-04T06:39:30.418Z,1023.11
2018-10-04T06:40:40.115Z,1023.1
2018-10-04T06:41:49.036Z,1023.12
2018-10-04T06:42:58.730Z,1023.12
2018-10-04T06:44:08.443Z,1023.17
2018-10-04T06:45:17.760Z,1023.11
2018-10-04T06:46:26.966Z,1023.13
2018-10-04T06:47:36.427Z,1023.11
2018-10-04T06:48:45.861Z,1023.13
2018-10-04T06:49:55.575Z,1023.12
2018-10-04T06:51:05.439Z,1023.16
2018-10-04T06:52:15.508Z,1023.19
2018-10-04T06:53:25.212Z,1023.18
2018-10-04T06:54:34.458Z,1023.2
2018-10-04T06:55:44.249Z,1023.2
2018-10-04T06:56:53.697Z,1023.21
2018-10-04T06:58:03.463Z,1023.22
2018-10-04T06:59:13.312Z,1023.25
2018-10-04T07:00:23.033Z,1023.22
2018-10-04T07:01:32.210Z,1023.22
2018-10-04T07:02:41.662Z,1023.29
2018-10-04T07:03:51.358Z,1023.28
2018-10-04T07:05:01.003Z,1023.28
2018-10-04T07:06:10.453Z,1023.27
2018-10-04T07:07:20.158Z,1023.26
2018-10-04T07:08:29.594Z,1023.27
2018-10-04T07:09:39.042Z,1023.32
2018-10-04T07:10:48.739Z,1023.3
2018-10-04T07:11:58.442Z,1023.32
2018-10-04T07:13:07.791Z,1023.32
2018-10-04T07:14:17.015Z,1023.31
2018-10-04T07:15:26.203Z,1023.31
2018-10-04T07:16:35.902Z,1023.32
2018-10-04T07:17:45.502Z,1023.34
2018-10-04T07:18:55.461Z,1023.33
2018-10-04T07:20:05.200Z,1023.31
2018-10-04T07:21:14.677Z,1023.27
2018-10-04T07:22:24.642Z,1023.31
2018-10-04T07:23:34.595Z,1023.32
2018-10-04T07:24:44.047Z,1023.3
2018-10-04T07:25:53.761Z,1023.3
2018-10-04T07:27:03.560Z,1023.33
2018-10-04T07:28:12.731Z,1023.37
2018-10-04T07:29:22.243Z,1023.33
2018-10-04T07:30:32.189Z,1023.36
2018-10-04T07:31:41.644Z,1023.33
2018-10-04T07:32:51.771Z,1023.34
2018-10-04T07:34:01.562Z,1023.37
2018-10-04T07:35:11.251Z,1023.37
2018-10-04T07:36:20.461Z,1023.42
2018-10-04T07:37:30.213Z,1023.41
2018-10-04T07:38:40.250Z,1023.48
2018-10-04T07:39:49.941Z,1023.44
2018-10-04T07:40:59.652Z,1023.48
2018-10-04T07:42:08.860Z,1023.49
2018-10-04T07:43:19.007Z,1023.46
2018-10-04T07:44:28.723Z,1023.48
2018-10-04T07:45:38.686Z,1023.5
2018-10-04T07:46:47.918Z,1023.53
2018-10-04T07:47:57.653Z,1023.55
2018-10-04T07:49:07.096Z,1023.56
2018-10-04T07:50:16.969Z,1023.59
2018-10-04T07:51:26.970Z,1023.65
2018-10-04T07:52:36.164Z,1023.6
2018-10-04T07:53:45.608Z,1023.64
2018-10-04T07:54:54.812Z,1023.67
2018-10-04T07:56:04.265Z,1023.69
2018-10-04T07:57:13.445Z,1023.66
2018-10-04T07:58:22.619Z,1023.69
2018-10-04T07:59:31.548Z,1023.64
2018-10-04T08:00:41.507Z,1023.67
2018-10-04T08:01:50.953Z,1023.66
2018-10-04T08:02:59.869Z,1023.65
2018-10-04T08:04:09.047Z,1023.67
2018-10-04T08:05:18.539Z,1023.67
2018-10-04T08:06:28.451Z,1023.68
2018-10-04T08:07:40.164Z,1023.68
2018-10-04T08:08:49.641Z,1023.71
2018-10-04T08:09:58.813Z,1023.67
2018-10-04T08:11:07.727Z,1023.7
2018-10-04T08:12:17.457Z,1023.68
2018-10-04T08:13:27.177Z,1023.68
2018-10-04T08:14:37.181Z,1023.67
2018-10-04T08:15:46.112Z,1023.65
2018-10-04T08:16:56.175Z,1023.71
2018-10-04T08:18:05.653Z,1023.68
2018-10-04T08:19:15.344Z,1023.71
2018-10-04T08:20:24.538Z,1023.72
2018-10-04T08:21:33.979Z,1023.68
2018-10-04T08:22:43.453Z,1023.68
2018-10-04T08:23:53.198Z,1023.73
2018-10-04T08:25:02.915Z,1023.69
2018-10-04T08:26:12.361Z,1023.66
2018-10-04T08:27:21.821Z,1023.63
2018-10-04T08:28:31.741Z,1023.7
2018-10-04T08:29:41.442Z,1023.68
2018-10-04T08:30:50.644Z,1023.68
2018-10-04T08:31:59.816Z,1023.69
2018-10-04T08:33:09.232Z,1023.73
2018-10-04T08:34:18.534Z,1023.73
2018-10-04T08:35:28.472Z,1023.7
2018-10-04T08:36:38.461Z,1023.71
2018-10-04T08:37:47.371Z,1023.75
2018-10-04T08:38:56.553Z,1023.74
2018-10-04T08:40:06.032Z,1023.7
2018-10-04T08:41:14.970Z,1023.72
2018-10-04T08:42:24.484Z,1023.73
2018-10-04T08:43:34.847Z,1023.74
2018-10-04T08:44:44.552Z,1023.76
2018-10-04T08:45:54.043Z,1023.69
2018-10-04T08:47:03.509Z,1023.69
2018-10-04T08:48:13.196Z,1023.67
2018-10-04T08:49:23.320Z,1023.71
2018-10-04T08:50:32.579Z,1023.7
2018-10-04T08:51:41.501Z,1023.68
2018-10-04T08:52:51.195Z,1023.66
2018-10-04T08:54:00.385Z,1023.64
2018-10-04T08:55:10.095Z,1023.61
2018-10-04T08:56:19.785Z,1023.59
2018-10-04T08:57:29.465Z,1023.63
2018-10-04T08:58:38.637Z,1023.64
2018-10-04T08:59:47.841Z,1023.61
2018-10-04T09:00:57.548Z,1023.61
2018-10-04T09:02:06.975Z,1023.61
2018-10-04T09:03:16.173Z,1023.62
2018-10-04T09:04:25.368Z,1023.64
2018-10-04T09:05:34.872Z,1023.63
2018-10-04T09:06:44.336Z,1023.62
2018-10-04T09:07:53.923Z,1023.58
2018-10-04T09:09:04.383Z,1023.61
2018-10-04T09:10:13.890Z,1023.6
2018-10-04T09:11:23.358Z,1023.58
2018-10-04T09:12:32.269Z,1023.62
2018-10-04T09:13:42.197Z,1023.58
2018-10-04T09:14:51.884Z,1023.57
2018-10-04T09:16:01.385Z,1023.59
2018-10-04T09:17:11.074Z,1023.58
2018-10-04T09:18:20.806Z,1023.57
2018-10-04T09:19:30.303Z,1023.56
2018-10-04T09:20:39.747Z,1023.56
2018-10-04T09:21:48.928Z,1023.58
2018-10-04T09:22:58.414Z,1023.57
2018-10-04T09:24:07.598Z,1023.57
2018-10-04T09:25:17.057Z,1023.56
2018-10-04T09:26:26.646Z,1023.53
2018-10-04T09:27:37.015Z,1023.54
2018-10-04T09:28:46.454Z,1023.54
2018-10-04T09:29:55.929Z,1023.53
2018-10-04T09:31:06.028Z,1023.54
2018-10-04T09:32:16.095Z,1023.58
2018-10-04T09:33:25.583Z,1023.57
2018-10-04T09:34:35.539Z,1023.54
2018-10-04T09:35:45.258Z,1023.6
2018-10-04T09:36:54.705Z,1023.54
2018-10-04T09:38:04.388Z,1023.59
2018-10-04T09:39:14.178Z,1023.57
2018-10-04T09:40:23.661Z,1023.54
2018-10-04T09:41:33.120Z,1023.56
2018-10-04T09:42:42.091Z,1023.55
2018-10-04T09:43:51.057Z,1023.54
2018-10-04T09:45:00.549Z,1023.53
2018-10-04T09:46:10.035Z,1023.53
2018-10-04T09:47:19.693Z,1023.52
2018-10-04T09:48:28.747Z,1023.49
2018-10-04T09:49:38.828Z,1023.5
2018-10-04T09:50:48.285Z,1023.48
2018-10-04T09:51:57.485Z,1023.5
2018-10-04T09:53:07.224Z,1023.43
2018-10-04T09:54:16.987Z,1023.48
2018-10-04T09:55:26.970Z,1023.44
2018-10-04T09:56:36.141Z,1023.43
2018-10-04T09:57:45.310Z,1023.43
2018-10-04T09:58:54.739Z,1023.45
2018-10-04T10:00:05.012Z,1023.45
2018-10-04T10:01:14.745Z,1023.39
2018-10-04T10:02:24.204Z,1023.4
2018-10-04T10:03:33.698Z,1023.39
2018-10-04T10:04:42.894Z,1023.4
2018-10-04T10:05:51.873Z,1023.39
2018-10-04T10:07:01.341Z,1023.4
2018-10-04T10:08:11.069Z,1023.41
2018-10-04T10:09:20.768Z,1023.4
2018-10-04T10:10:29.959Z,1023.39
2018-10-04T10:11:39.215Z,1023.39
2018-10-04T10:12:49.095Z,1023.36
2018-10-04T10:13:58.302Z,1023.34
2018-10-04T10:15:07.490Z,1023.33
2018-10-04T10:16:16.915Z,1023.34
2018-10-04T10:17:26.396Z,1023.31
2018-10-04T10:18:35.834Z,1023.31
2018-10-04T10:19:45.543Z,1023.29
2018-10-04T10:20:55.260Z,1023.28
2018-10-04T10:22:04.825Z,1023.26
2018-10-04T10:23:14.282Z,1023.27
2018-10-04T10:24:23.457Z,1023.28
2018-10-04T10:25:33.200Z,1023.28
2018-10-04T10:26:42.649Z,1023.28
2018-10-04T10:27:52.108Z,1023.27
2018-10-04T10:29:01.550Z,1023.28
2018-10-04T10:30:11.236Z,1023.28
2018-10-04T10:31:20.949Z,1023.26
2018-10-04T10:32:30.771Z,1023.27
2018-10-04T10:33:40.055Z,1023.31
2018-10-04T10:34:49.478Z,1023.32
2018-10-04T10:35:58.630Z,1023.33
2018-10-04T10:37:08.076Z,1023.29
2018-10-04T10:38:17.561Z,1023.34
2018-10-04T10:39:26.501Z,1023.32
2018-10-04T10:40:36.146Z,1023.31
2018-10-04T10:41:45.408Z,1023.31
2018-10-04T10:42:54.840Z,1023.32
2018-10-04T10:44:04.286Z,1023.35
2018-10-04T10:45:13.468Z,1023.32
2018-10-04T10:46:23.244Z,1023.33
2018-10-04T10:47:33.292Z,1023.33
2018-10-04T10:48:42.723Z,1023.37
2018-10-04T10:49:52.155Z,1023.35
2018-10-04T10:51:01.403Z,1023.33
2018-10-04T10:52:11.390Z,1023.34
2018-10-04T10:53:21.167Z,1023.35
2018-10-04T10:54:30.683Z,1023.39
2018-10-04T10:55:40.406Z,1023.34
2018-10-04T10:56:49.840Z,1023.35
2018-10-04T10:57:59.788Z,1023.34
2018-10-04T10:59:09.080Z,1023.32
2018-10-04T11:00:18.279Z,1023.35
2018-10-04T11:01:28.248Z,1023.34
2018-10-04T11:02:37.182Z,1023.35
2018-10-04T11:03:46.630Z,1023.32
2018-10-04T11:04:55.866Z,1023.28
2018-10-04T11:06:05.569Z,1023.3
2018-10-04T11:07:15.293Z,1023.29
2018-10-04T11:08:24.630Z,1023.33
2018-10-04T11:09:35.066Z,1023.3
2018-10-04T11:10:44.487Z,1023.33
2018-10-04T11:11:54.193Z,1023.33
2018-10-04T11:13:03.912Z,1023.29
2018-10-04T11:14:13.628Z,1023.3
2018-10-04T11:15:23.066Z,1023.31
2018-10-04T11:16:33.131Z,1023.33
2018-10-04T11:17:42.888Z,1023.28
2018-10-04T11:18:53.048Z,1023.28
2018-10-04T11:20:02.504Z,1023.3
2018-10-04T11:21:11.945Z,1023.27
2018-10-04T11:22:21.633Z,1023.28
2018-10-04T11:23:31.086Z,1023.28
2018-10-04T11:24:40.529Z,1023.25
2018-10-04T11:25:49.724Z,1023.25
2018-10-04T11:26:58.917Z,1023.26
2018-10-04T11:28:08.041Z,1023.23
2018-10-04T11:29:18.074Z,1023.23
2018-10-04T11:30:28.603Z,1023.19
2018-10-04T11:31:38.341Z,1023.16
2018-10-04T11:32:47.819Z,1023.19
2018-10-04T11:33:57.747Z,1023.15
2018-10-04T11:35:07.234Z,1023.15
2018-10-04T11:36:16.969Z,1023.13
2018-10-04T11:37:26.164Z,1023.15
2018-10-04T11:38:35.626Z,1023.17
2018-10-04T11:39:44.830Z,1023.12
2018-10-04T11:40:54.006Z,1023.11
2018-10-04T11:42:03.929Z,1023.06
2018-10-04T11:43:13.638Z,1023.1
2018-10-04T11:44:23.100Z,1023.04
2018-10-04T11:45:32.523Z,1023.07
2018-10-04T11:46:41.991Z,1023
2018-10-04T11:47:51.159Z,1022.99
2018-10-04T11:49:00.612Z,1022.98
2018-10-04T11:50:10.615Z,1022.93
2018-10-04T11:51:20.059Z,1022.96
2018-10-04T11:52:29.493Z,1022.95
2018-10-04T11:53:38.705Z,1022.93
2018-10-04T11:54:47.619Z,1022.95
2018-10-04T11:55:56.760Z,1022.9
2018-10-04T11:57:06.213Z,1022.91
2018-10-04T11:58:15.423Z,1022.88
2018-10-04T11:59:24.605Z,1022.89
2018-10-04T12:00:33.818Z,1022.86
2018-10-04T12:01:43.344Z,1022.84
2018-10-04T12:02:52.941Z,1022.85
2018-10-04T12:04:02.389Z,1022.84
2018-10-04T12:05:11.922Z,1022.82
2018-10-04T12:06:21.354Z,1022.79
2018-10-04T12:07:30.542Z,1022.79
2018-10-04T12:08:40.277Z,1022.77
2018-10-04T12:09:49.536Z,1022.77
2018-10-04T12:10:59.021Z,1022.79
2018-10-04T12:12:08.466Z,1022.81
2018-10-04T12:13:17.437Z,1022.78
2018-10-04T12:14:27.118Z,1022.79
2018-10-04T12:15:36.568Z,1022.74
2018-10-04T12:16:46.297Z,1022.72
2018-10-04T12:17:55.476Z,1022.68
2018-10-04T12:19:05.040Z,1022.69
2018-10-04T12:20:14.711Z,1022.65
2018-10-04T12:21:23.906Z,1022.67
2018-10-04T12:22:32.840Z,1022.64
2018-10-04T12:23:42.068Z,1022.61
2018-10-04T12:24:51.805Z,1022.62
2018-10-04T12:26:01.600Z,1022.58
2018-10-04T12:27:11.307Z,1022.58
2018-10-04T12:28:20.754Z,1022.54
2018-10-04T12:29:30.448Z,1022.54
2018-10-04T12:30:40.163Z,1022.51
2018-10-04T12:31:49.454Z,1022.51
2018-10-04T12:32:58.961Z,1022.48
2018-10-04T12:34:07.898Z,1022.44
2018-10-04T12:35:17.100Z,1022.45
2018-10-04T12:36:26.283Z,1022.46
2018-10-04T12:37:35.864Z,1022.43
2018-10-04T12:38:45.457Z,1022.4
2018-10-04T12:39:55.146Z,1022.39
2018-10-04T12:41:05.115Z,1022.37
2018-10-04T12:42:14.576Z,1022.36
2018-10-04T12:43:24.526Z,1022.34
2018-10-04T12:44:34.304Z,1022.33
2018-10-04T12:45:43.730Z,1022.33
2018-10-04T12:46:52.912Z,1022.29
2018-10-04T12:48:01.852Z,1022.28
2018-10-04T12:49:11.041Z,1022.3
2018-10-04T12:50:20.482Z,1022.28
2018-10-04T12:51:29.938Z,1022.29
2018-10-04T12:52:38.904Z,1022.26
2018-10-04T12:53:49.143Z,1022.27
2018-10-04T12:54:58.107Z,1022.24
2018-10-04T12:56:07.797Z,1022.24
2018-10-04T12:57:17.763Z,1022.2
2018-10-04T12:58:27.590Z,1022.2
2018-10-04T12:59:37.287Z,1022.22
2018-10-04T13:00:47.135Z,1022.19
2018-10-04T13:01:56.892Z,1022.21
2018-10-04T13:03:06.108Z,1022.21
2018-10-04T13:04:15.296Z,1022.19
2018-10-04T13:05:24.486Z,1022.19
2018-10-04T13:06:34.057Z,1022.19
2018-10-04T13:07:43.961Z,1022.14
2018-10-04T13:08:53.135Z,1022.14
2018-10-04T13:10:02.903Z,1022.12
2018-10-04T13:11:12.598Z,1022.14
2018-10-04T13:12:22.057Z,1022.11
2018-10-04T13:13:31.822Z,1022.11
2018-10-04T13:14:42.090Z,1022.12
2018-10-04T13:15:51.826Z,1022.11
2018-10-04T13:17:01.318Z,1022.03
2018-10-04T13:18:10.498Z,1022.08
2018-10-04T13:19:19.926Z,1022.05
2018-10-04T13:20:30.083Z,1022.1
2018-10-04T13:21:40.153Z,1022.09
2018-10-04T13:22:50.601Z,1022.11
2018-10-04T13:23:59.555Z,1022.05
2018-10-04T13:25:08.739Z,1022.01
2018-10-04T13:26:18.183Z,1022.05
2018-10-04T13:27:27.697Z,1022.05
2018-10-04T13:28:37.176Z,1022.06
2018-10-04T13:29:46.452Z,1022.06
2018-10-04T13:30:55.783Z,1022.04
2018-10-04T13:32:05.223Z,1022.01
2018-10-04T13:33:14.661Z,1022.04
2018-10-04T13:34:24.567Z,1022.04
2018-10-04T13:35:33.843Z,1022.01
2018-10-04T13:36:43.058Z,1021.94
2018-10-04T13:37:52.507Z,1021.92
2018-10-04T13:39:01.965Z,1021.91
2018-10-04T13:40:10.968Z,1021.9
2018-10-04T13:41:20.485Z,1021.91
2018-10-04T13:42:30.216Z,1021.88
2018-10-04T13:43:39.422Z,1021.89
2018-10-04T13:44:48.936Z,1021.88
2018-10-04T13:45:58.824Z,1021.86
2018-10-04T13:47:08.677Z,1021.86
2018-10-04T13:48:18.164Z,1021.82
2018-10-04T13:49:27.893Z,1021.84
2018-10-04T13:50:37.379Z,1021.84
2018-10-04T13:51:46.849Z,1021.82
2018-10-04T13:52:56.616Z,1021.79
2018-10-04T13:54:06.328Z,1021.74
2018-10-04T13:55:16.545Z,1021.75
2018-10-04T13:56:25.746Z,1021.75
2018-10-04T13:57:34.670Z,1021.73
2018-10-04T13:58:44.252Z,1021.7
2018-10-04T13:59:54.177Z,1021.69
2018-10-04T14:01:03.356Z,1021.7
2018-10-04T14:02:12.542Z,1021.7
2018-10-04T14:03:21.804Z,1021.66
2018-10-04T14:04:31.599Z,1021.71